Matucana, Peru
Current Conditions -  °F | °C
As of 9:00 AM on Thursday 30 Oct 2014 (Local Time) from SPIM Reporting Station
Overcast Overcast  
Wind Chill: 64°   Ceiling: 1700
Heat Index: 64°   Visibility: 6mi
Dew Point: 59°   Wind: 7mph
Humidity: 83%   Direction: 300°WNW
Pressure: 29.94"   Gusts: NA
Location:  11.85°S, 76.4°W
Report Text: SPIM 301400Z 30006KT 9999 OVC017 18/15 Q1014 NOSIG RMK PP000
Loading
Personal Weather Stations






























Interactive Weather Map
Tropical Storm Tracking
New forecast layout! Learn more

10-Day Weather Forecast

Advertisements
Track Severe Weather on mobile